Flight Track Log - Related Links

Times and Time Zones

All times are in EDT time to prevent confusion due to time zone crossing. See the N830QS flight status page for this flight to view local times or setup timezone preferences in your user account.

Time Position Orientation Groundspeed Altitude Reporting Facility
EDT Latitude Longitude Course Direction KTS MPH feet Rate Location/Type
Fri 04:40:19 PM 34.0000 -118.5000 250° West 185 213 1,300  Level Southern TRACON
Fri 04:41:34 PM 33.9783 -118.5731 250° West 225 259 3,400 2,058 Climbing Los Center
Fri 04:42:36 PM 33.9472 -118.6519 245° Southwest 258 297 6,000 2,758 Climbing Los Center
Fri 04:43:38 PM 33.9317 -118.7517 259° West 278 320 9,100 2,468 Climbing Los Center
Fri 04:44:40 PM 33.9256 -118.8350 265° West 289 333 11,100 2,468 Climbing Los Center
Fri 04:45:42 PM 33.9392 -118.9531 278° West 311 358 14,200 2,468 Climbing Los Center
Fri 04:46:44 PM 33.9986 -119.0353 311° West 326 375 16,200 2,064 Climbing Los Center
Fri 04:47:47 PM 34.0603 -119.1225 310° West 339 390 18,500 2,016 Climbing Los Center
Fri 04:48:49 PM 34.1233 -119.2139 310° West 355 409 20,400 1,790 Climbing Los Center
Fri 04:49:51 PM 34.1886 -119.3069 310° West 365 420 22,200 1,694 Climbing Los Center
Fri 04:50:53 PM 34.2553 -119.4036 310° West 374 430 23,900 871 Climbing Los Center
Fri 04:51:55 PM 34.3408 -119.5283 310° West 403 464 24,000 48 Climbing Los Center
Fri 04:52:57 PM 34.4158 -119.6372 310° West 420 483 24,000  Level Los Center
Fri 04:53:59 PM 34.4919 -119.7494 309° West 429 494 24,000  Level Los Center
Fri 04:55:01 PM 34.5864 -119.8411 321° Northwest 433 498 24,000  Level Los Center
Fri 04:56:03 PM 34.6961 -119.9306 326° Northwest 441 507 24,000  Level Los Center
Fri 04:57:05 PM 34.7958 -120.0178 324° Northwest 441 507 24,000  Level Los Center
Fri 04:58:08 PM 34.9097 -120.1175 324° Northwest 441 507 24,000  Level Los Center
Fri 04:59:10 PM 35.0092 -120.2033 325° Northwest 441 507 24,000  Level Los Center
Fri 05:00:13 PM 35.1067 -120.2892 324° Northwest 440 506 24,000  Level Los Center
Fri 05:01:14 PM 35.2039 -120.3744 324° Northwest 438 504 24,000  Level Los Center
Fri 05:02:16 PM 35.3003 -120.4608 324° Northwest 435 501 24,000  Level Los Center
Fri 05:03:18 PM 35.4167 -120.5664 324° Northwest 438 504 24,000  Level Los Center
Fri 05:04:20 PM 35.5128 -120.6497 325° Northwest 426 490 24,000  Level Los Center
Fri 05:05:23 PM 35.6075 -120.7333 324° Northwest 422 486 24,000  Level Los Center
Fri 05:05:54 PM 35.6597 -120.7817 323° Northwest 421 484 24,000  Level Oakland Center
Fri 05:06:56 PM 35.7550 -120.8653 325° Northwest 421 484 24,000 -145 Level Oakland Center
Fri 05:07:58 PM 35.8492 -120.9517 323° Northwest 422 486 23,700 -878 Descending Oakland Center
Fri 05:08:59 PM 35.9411 -121.0342 324° Northwest 415 478 22,200 -1,475 Descending Oakland Center
Fri 05:10:00 PM 36.0189 -121.1053 324° Northwest 370 426 20,700 -1,610 Descending Oakland Center
Fri 05:11:02 PM 36.0992 -121.1769 324° Northwest 358 412 18,900 -2,323 Descending Oakland Center
Fri 05:12:04 PM 36.1881 -121.2586 323° Northwest 339 390 15,900 -2,927 Descending Oakland Center
Fri 05:13:05 PM 36.2567 -121.3219 323° Northwest 317 365 12,900 -2,951 Descending Oakland Center
Fri 05:14:06 PM 36.3258 -121.3850 324° Northwest 312 359 9,900 -2,488 Descending Oakland Center
Fri 05:15:08 PM 36.3903 -121.4433 324° Northwest 295 339 7,800 -1,854 Descending Oakland Center
Fri 05:16:09 PM 36.4514 -121.5028 322° Northwest 283 326 6,100 -1,171 Descending Oakland Center
Fri 05:17:11 PM 36.4950 -121.5711 308° West 264 304 5,400 -1,081 Descending Oakland Center
Fri 05:18:00 PM 36.5167 -121.6333 293° West 226 260 4,100 -1,431 Descending Northern TRACON
Fri 05:19:00 PM 36.5333 -121.7000 287° West 204 235 2,800 -1,200 Descending Northern TRACON
Fri 05:20:00 PM 36.5667 -121.7667 302° West 175 201 1,700 -1,000 Descending Northern TRACON
Fri 05:21:00 PM 36.5667 -121.8000 270° West 137 158 800 -900 Descending Northern TRACON

Login

Don't have an account? Register now (free) for customized features, flight alerts, and more!